Time;durP1;ratioP1;P1;durP2;ratioP2;P2;SDS_P1;SDS_P2;PMS_P1;PMS_P2;Temp;Humidity;BMP_temperature;BMP_pressure;BME280_temperature;BME280_humidity;BME280_pressure;Samples;Min_cycle;Max_cycle;Signal;HPM_P1;HPM_P2
2021/12/14 00:00:17;;;;;;;0.00;0.00;;;;;;;;;;1719422;28;20216;-70
2021/12/14 00:01:11;;;;;;;0.00;0.00;;;;;;;;;;1723121;28;20278;-70
2021/12/14 00:02:04;;;;;;;0.00;0.00;;;;;;;;;;1723395;28;20523;-70
2021/12/14 00:02:55;;;;;;;0.00;0.00;;;;;;;;;;1718338;28;20212;-70
2021/12/14 00:03:49;;;;;;;0.00;0.00;;;;;;;;;;1723229;28;20208;-70
2021/12/14 00:04:41;;;;;;;0.00;0.00;;;;;;;;;;1718673;28;20279;-70
2021/12/14 00:05:34;;;;;;;0.00;0.00;;;;;;;;;;1718929;28;20201;-70
2021/12/14 00:06:25;;;;;;;0.00;0.00;;;;;;;;;;1718781;28;20247;-70
2021/12/14 00:07:18;;;;;;;0.00;0.00;;;;;;;;;;1724578;28;20204;-70
2021/12/14 00:08:12;;;;;;;0.00;0.00;;;;;;;;;;1723457;28;20227;-70
2021/12/14 00:09:05;;;;;;;0.00;0.00;;;;;;;;;;1723118;28;20209;-70
2021/12/14 00:10:11;;;;;;;0.00;0.00;;;;;;;;;;1722655;28;20209;-70
2021/12/14 00:12:33;;;;;;;0.00;0.00;;;;;;;;;;1719806;28;20201;-70
2021/12/14 00:13:30;;;;;;;0.00;0.00;;;;;;;;;;1721262;28;20201;-70
2021/12/14 00:15:02;;;;;;;0.00;0.00;;;;;;;;;;1724394;28;20261;-70
2021/12/14 00:15:39;;;;;;;0.00;0.00;;;;;;;;;;1724329;28;20661;-70
2021/12/14 00:16:34;;;;;;;0.00;0.00;;;;;;;;;;1723385;28;20215;-71
2021/12/14 00:17:26;;;;;;;0.00;0.00;;;;;;;;;;1721465;28;20279;-71
2021/12/14 00:18:18;;;;;;;0.00;0.00;;;;;;;;;;1721953;28;20204;-71
2021/12/14 00:19:10;;;;;;;0.00;0.00;;;;;;;;;;1721268;28;20212;-71
2021/12/14 00:20:01;;;;;;;0.00;0.00;;;;;;;;;;1717529;28;20611;-71
2021/12/14 00:20:55;;;;;;;0.00;0.00;;;;;;;;;;1722431;28;20228;-71
2021/12/14 00:21:50;;;;;;;0.00;0.00;;;;;;;;;;1720135;28;20201;-70
2021/12/14 00:24:11;;;;;;;0.00;0.00;;;;;;;;;;1723221;28;20196;-70
2021/12/14 00:25:02;;;;;;;0.00;0.00;;;;;;;;;;1721258;28;20203;-71
2021/12/14 00:25:55;;;;;;;0.00;0.00;;;;;;;;;;1720260;28;20224;-71
2021/12/14 00:26:48;;;;;;;0.00;0.00;;;;;;;;;;1717704;28;20539;-71
2021/12/14 00:27:41;;;;;;;0.00;0.00;;;;;;;;;;1725123;28;20204;-71
2021/12/14 00:28:33;;;;;;;0.00;0.00;;;;;;;;;;1722154;28;20255;-71
2021/12/14 00:29:27;;;;;;;0.00;0.00;;;;;;;;;;1725421;28;20211;-71
2021/12/14 00:30:18;;;;;;;0.00;0.00;;;;;;;;;;1719871;28;20205;-71
2021/12/14 00:31:17;;;;;;;0.00;0.00;;;;;;;;;;1723911;28;20624;-71
2021/12/14 00:32:13;;;;;;;0.00;0.00;;;;;;;;;;1722633;28;20204;-71
2021/12/14 00:33:07;;;;;;;0.00;0.00;;;;;;;;;;1719367;28;20226;-70
2021/12/14 00:34:01;;;;;;;0.00;0.00;;;;;;;;;;1720787;28;20208;-70
2021/12/14 00:34:54;;;;;;;0.00;0.00;;;;;;;;;;1722895;28;20200;-70
2021/12/14 00:35:47;;;;;;;0.00;0.00;;;;;;;;;;1721862;28;20228;-70
2021/12/14 00:36:40;;;;;;;0.00;0.00;;;;;;;;;;1723461;28;20238;-71
2021/12/14 00:37:33;;;;;;;0.00;0.00;;;;;;;;;;1717806;28;20205;-71
2021/12/14 00:38:26;;;;;;;0.00;0.00;;;;;;;;;;1720956;28;20207;-70
2021/12/14 00:39:17;;;;;;;0.00;0.00;;;;;;;;;;1720192;28;20630;-70
2021/12/14 00:40:12;;;;;;;0.00;0.00;;;;;;;;;;1720469;28;20252;-71
2021/12/14 00:41:05;;;;;;;0.00;0.00;;;;;;;;;;1724447;28;20724;-71
2021/12/14 00:41:58;;;;;;;0.00;0.00;;;;;;;;;;1720011;28;20201;-71
2021/12/14 00:42:49;;;;;;;0.00;0.00;;;;;;;;;;1724329;28;20212;-71
2021/12/14 00:43:42;;;;;;;0.00;0.00;;;;;;;;;;1719451;28;20204;-71
2021/12/14 00:44:33;;;;;;;0.00;0.00;;;;;;;;;;1724923;28;20221;-70
2021/12/14 00:45:27;;;;;;;0.00;0.00;;;;;;;;;;1719316;28;20205;-70
2021/12/14 00:46:18;;;;;;;0.00;0.00;;;;;;;;;;1724978;28;20552;-71
2021/12/14 00:47:11;;;;;;;0.00;0.00;;;;;;;;;;1720721;28;20231;-71
2021/12/14 00:48:03;;;;;;;0.00;0.00;;;;;;;;;;1724503;28;20208;-71
2021/12/14 00:48:56;;;;;;;0.00;0.00;;;;;;;;;;1719712;28;20229;-71
2021/12/14 00:49:47;;;;;;;0.00;0.00;;;;;;;;;;1723139;28;20615;-71
2021/12/14 00:50:40;;;;;;;0.00;0.00;;;;;;;;;;1722252;28;20925;-71
2021/12/14 00:51:31;;;;;;;0.00;0.00;;;;;;;;;;1722525;28;20204;-71
2021/12/14 00:52:24;;;;;;;0.00;0.00;;;;;;;;;;1718511;28;20209;-71
2021/12/14 00:53:15;;;;;;;0.00;0.00;;;;;;;;;;1719404;28;20208;-71
2021/12/14 00:54:10;;;;;;;0.00;0.00;;;;;;;;;;1722104;28;20200;-71
2021/12/14 00:55:05;;;;;;;0.00;0.00;;;;;;;;;;1722428;28;20196;-71
2021/12/14 00:55:59;;;;;;;0.00;0.00;;;;;;;;;;1720407;28;20229;-70
2021/12/14 00:56:51;;;;;;;0.00;0.00;;;;;;;;;;1720454;28;20529;-70
2021/12/14 00:57:43;;;;;;;0.00;0.00;;;;;;;;;;1724957;28;20231;-70
2021/12/14 00:58:36;;;;;;;0.00;0.00;;;;;;;;;;1722874;28;20261;-70
2021/12/14 00:59:28;;;;;;;0.00;0.00;;;;;;;;;;1724812;28;20200;-70
2021/12/14 01:00:22;;;;;;;0.00;0.00;;;;;;;;;;1721421;28;20898;-70
2021/12/14 01:01:16;;;;;;;0.00;0.00;;;;;;;;;;1724435;28;20633;-70
2021/12/14 01:02:09;;;;;;;0.00;0.00;;;;;;;;;;1719540;28;20602;-70
2021/12/14 01:03:04;;;;;;;0.00;0.00;;;;;;;;;;1724486;28;20539;-70
2021/12/14 01:03:57;;;;;;;0.00;0.00;;;;;;;;;;1724475;28;20205;-71
2021/12/14 01:04:52;;;;;;;0.00;0.00;;;;;;;;;;1723721;28;20204;-70
2021/12/14 01:05:45;;;;;;;0.00;0.00;;;;;;;;;;1722347;28;20232;-70
2021/12/14 01:06:44;;;;;;;0.00;0.00;;;;;;;;;;1722341;28;20211;-70
2021/12/14 01:07:35;;;;;;;0.00;0.00;;;;;;;;;;1717810;28;20251;-70
2021/12/14 01:08:29;;;;;;;0.00;0.00;;;;;;;;;;1720760;28;20539;-70
2021/12/14 01:09:22;;;;;;;0.00;0.00;;;;;;;;;;1719470;28;20205;-70
2021/12/14 01:10:17;;;;;;;0.00;0.00;;;;;;;;;;1719885;28;20205;-70
2021/12/14 01:11:12;;;;;;;0.00;0.00;;;;;;;;;;1724362;28;20239;-70
2021/12/14 01:12:09;;;;;;;0.00;0.00;;;;;;;;;;1720822;28;20229;-70
2021/12/14 01:13:05;;;;;;;0.00;0.00;;;;;;;;;;1724820;28;20684;-70
2021/12/14 01:14:08;;;;;;;0.00;0.00;;;;;;;;;;1720863;28;20201;-70
2021/12/14 01:15:12;;;;;;;0.00;0.00;;;;;;;;;;1719521;28;20657;-70
2021/12/14 01:16:16;;;;;;;0.00;0.00;;;;;;;;;;1717659;28;20678;-70
2021/12/14 01:17:11;;;;;;;0.00;0.00;;;;;;;;;;1723017;28;20203;-70
2021/12/14 01:18:16;;;;;;;0.00;0.00;;;;;;;;;;1718412;28;20200;-70
2021/12/14 01:19:14;;;;;;;0.00;0.00;;;;;;;;;;1719684;28;20212;-71
2021/12/14 01:20:10;;;;;;;0.00;0.00;;;;;;;;;;1720219;28;20193;-70
2021/12/14 01:21:13;;;;;;;0.00;0.00;;;;;;;;;;1723637;28;20743;-70
2021/12/14 01:22:30;;;;;;;0.00;0.00;;;;;;;;;;1724147;28;20630;-70
2021/12/14 01:23:29;;;;;;;0.00;0.00;;;;;;;;;;1722206;28;20292;-71
2021/12/14 01:24:41;;;;;;;0.00;0.00;;;;;;;;;;1726307;28;20501;-70
2021/12/14 01:25:35;;;;;;;0.00;0.00;;;;;;;;;;1718240;28;20205;-70
2021/12/14 01:26:29;;;;;;;0.00;0.00;;;;;;;;;;1718612;28;20208;-70
2021/12/14 01:27:23;;;;;;;0.00;0.00;;;;;;;;;;1725738;28;20291;-70
2021/12/14 01:28:17;;;;;;;0.00;0.00;;;;;;;;;;1723697;28;20208;-70
2021/12/14 01:29:10;;;;;;;0.00;0.00;;;;;;;;;;1723247;28;20220;-70
2021/12/14 01:30:05;;;;;;;0.00;0.00;;;;;;;;;;1722670;28;20205;-70
2021/12/14 01:31:04;;;;;;;0.00;0.00;;;;;;;;;;1723910;28;20236;-70
2021/12/14 01:31:59;;;;;;;0.00;0.00;;;;;;;;;;1718055;28;20263;-70
2021/12/14 01:32:52;;;;;;;0.00;0.00;;;;;;;;;;1719295;28;20189;-70
2021/12/14 01:33:46;;;;;;;0.00;0.00;;;;;;;;;;1719809;28;20232;-70
2021/12/14 01:34:38;;;;;;;0.00;0.00;;;;;;;;;;1726043;28;20307;-70
2021/12/14 01:35:32;;;;;;;0.00;0.00;;;;;;;;;;1722132;28;20209;-70
2021/12/14 01:36:30;;;;;;;0.00;0.00;;;;;;;;;;1725645;28;20634;-70
2021/12/14 01:37:26;;;;;;;0.00;0.00;;;;;;;;;;1722205;28;20678;-70
2021/12/14 01:38:32;;;;;;;0.00;0.00;;;;;;;;;;1720148;28;20225;-70
2021/12/14 01:39:46;;;;;;;0.00;0.00;;;;;;;;;;1719495;28;20300;-70
2021/12/14 01:40:54;;;;;;;0.00;0.00;;;;;;;;;;1722612;28;20209;-70
2021/12/14 01:41:46;;;;;;;0.00;0.00;;;;;;;;;;1721430;28;20201;-70
2021/12/14 01:42:40;;;;;;;0.00;0.00;;;;;;;;;;1719572;28;20207;-70
2021/12/14 01:43:34;;;;;;;0.00;0.00;;;;;;;;;;1720241;28;20212;-70
2021/12/14 01:44:28;;;;;;;0.00;0.00;;;;;;;;;;1725133;28;20270;-70
2021/12/14 01:45:22;;;;;;;0.00;0.00;;;;;;;;;;1720782;28;20551;-70
2021/12/14 01:46:16;;;;;;;0.00;0.00;;;;;;;;;;1725713;28;20677;-71
2021/12/14 01:47:10;;;;;;;0.00;0.00;;;;;;;;;;1719989;28;20220;-71
2021/12/14 01:48:02;;;;;;;0.00;0.00;;;;;;;;;;1725802;28;20632;-71
2021/12/14 01:48:55;;;;;;;0.00;0.00;;;;;;;;;;1720810;28;20229;-71
2021/12/14 01:49:48;;;;;;;0.00;0.00;;;;;;;;;;1724646;28;20209;-71
2021/12/14 01:50:41;;;;;;;0.00;0.00;;;;;;;;;;1721293;28;20243;-71
2021/12/14 01:51:33;;;;;;;0.00;0.00;;;;;;;;;;1723986;28;20197;-71
2021/12/14 01:52:26;;;;;;;0.00;0.00;;;;;;;;;;1722149;28;20205;-71
2021/12/14 01:53:22;;;;;;;0.00;0.00;;;;;;;;;;1721042;28;20660;-71
2021/12/14 01:54:15;;;;;;;0.00;0.00;;;;;;;;;;1724155;28;20219;-71
2021/12/14 01:55:09;;;;;;;0.00;0.00;;;;;;;;;;1722417;28;20666;-71
2021/12/14 01:56:02;;;;;;;0.00;0.00;;;;;;;;;;1724544;28;20534;-71
2021/12/14 01:56:54;;;;;;;0.00;0.00;;;;;;;;;;1720348;28;20204;-71
2021/12/14 01:57:46;;;;;;;0.00;0.00;;;;;;;;;;1725609;28;20208;-70
2021/12/14 01:58:41;;;;;;;0.00;0.00;;;;;;;;;;1720782;28;20232;-71
2021/12/14 01:59:35;;;;;;;0.00;0.00;;;;;;;;;;1720771;28;20524;-71
2021/12/14 02:00:33;;;;;;;0.00;0.00;;;;;;;;;;1719747;28;20208;-71
2021/12/14 02:01:34;;;;;;;0.00;0.00;;;;;;;;;;1725434;28;20223;-71
2021/12/14 02:02:41;;;;;;;0.00;0.00;;;;;;;;;;1722893;28;20574;-71
2021/12/14 02:03:35;;;;;;;0.00;0.00;;;;;;;;;;1721072;28;20531;-71
2021/12/14 02:04:29;;;;;;;0.00;0.00;;;;;;;;;;1725858;28;20642;-71
2021/12/14 02:05:22;;;;;;;0.00;0.00;;;;;;;;;;1720530;28;20504;-71
2021/12/14 02:06:17;;;;;;;0.00;0.00;;;;;;;;;;1725525;28;20525;-71
2021/12/14 02:07:09;;;;;;;0.00;0.00;;;;;;;;;;1722575;28;20629;-71
2021/12/14 02:08:03;;;;;;;0.00;0.00;;;;;;;;;;1719194;28;20204;-71
2021/12/14 02:08:58;;;;;;;0.00;0.00;;;;;;;;;;1721827;28;20220;-71
2021/12/14 02:09:53;;;;;;;0.00;0.00;;;;;;;;;;1724599;28;20220;-71
2021/12/14 02:10:44;;;;;;;0.00;0.00;;;;;;;;;;1719210;28;20240;-71
2021/12/14 02:11:39;;;;;;;0.00;0.00;;;;;;;;;;1720490;28;20546;-71
2021/12/14 02:12:31;;;;;;;0.00;0.00;;;;;;;;;;1723388;28;20660;-71
2021/12/14 02:13:24;;;;;;;0.00;0.00;;;;;;;;;;1722884;28;20586;-71
2021/12/14 02:14:16;;;;;;;0.00;0.00;;;;;;;;;;1724247;28;20305;-71
2021/12/14 02:15:10;;;;;;;0.00;0.00;;;;;;;;;;1721874;28;20290;-71
2021/12/14 02:16:03;;;;;;;0.00;0.00;;;;;;;;;;1724637;28;20577;-71
2021/12/14 02:16:57;;;;;;;0.00;0.00;;;;;;;;;;1720340;28;20201;-71
2021/12/14 02:17:48;;;;;;;0.00;0.00;;;;;;;;;;1726062;28;20212;-71
2021/12/14 02:18:44;;;;;;;0.00;0.00;;;;;;;;;;1720215;28;20590;-71
2021/12/14 02:19:37;;;;;;;0.00;0.00;;;;;;;;;;1724421;28;20199;-71
2021/12/14 02:20:30;;;;;;;0.00;0.00;;;;;;;;;;1719584;28;20208;-71
2021/12/14 02:21:24;;;;;;;0.00;0.00;;;;;;;;;;1725161;28;20205;-71
2021/12/14 02:22:17;;;;;;;0.00;0.00;;;;;;;;;;1721778;28;20731;-71
2021/12/14 02:23:09;;;;;;;0.00;0.00;;;;;;;;;;1724134;28;20232;-71
2021/12/14 02:24:02;;;;;;;0.00;0.00;;;;;;;;;;1723226;28;20219;-71
2021/12/14 02:24:53;;;;;;;0.00;0.00;;;;;;;;;;1720729;28;20216;-71
2021/12/14 02:25:46;;;;;;;0.00;0.00;;;;;;;;;;1722556;28;20696;-71
2021/12/14 02:26:38;;;;;;;0.00;0.00;;;;;;;;;;1723257;28;20263;-71
2021/12/14 02:27:35;;;;;;;0.00;0.00;;;;;;;;;;1721673;28;20205;-71
2021/12/14 02:28:27;;;;;;;0.00;0.00;;;;;;;;;;1720428;28;20258;-71
2021/12/14 02:29:23;;;;;;;0.00;0.00;;;;;;;;;;1724513;28;20224;-71
2021/12/14 02:30:17;;;;;;;0.00;0.00;;;;;;;;;;1721378;28;20208;-71
2021/12/14 02:31:09;;;;;;;0.00;0.00;;;;;;;;;;1718579;28;20302;-71
2021/12/14 02:32:02;;;;;;;0.00;0.00;;;;;;;;;;1721203;28;20263;-71
2021/12/14 02:32:54;;;;;;;0.00;0.00;;;;;;;;;;1725670;28;20445;-71
2021/12/14 02:33:47;;;;;;;0.00;0.00;;;;;;;;;;1723024;28;20246;-71
2021/12/14 02:34:40;;;;;;;0.00;0.00;;;;;;;;;;1724059;28;20242;-71
2021/12/14 02:35:32;;;;;;;0.00;0.00;;;;;;;;;;1721696;28;20233;-71
2021/12/14 02:36:26;;;;;;;0.00;0.00;;;;;;;;;;1725641;28;20208;-71
2021/12/14 02:37:21;;;;;;;0.00;0.00;;;;;;;;;;1721465;28;20674;-71
2021/12/14 02:38:13;;;;;;;0.00;0.00;;;;;;;;;;1723831;28;20208;-71
2021/12/14 02:39:09;;;;;;;0.00;0.00;;;;;;;;;;1722597;28;20200;-71
2021/12/14 02:40:03;;;;;;;0.00;0.00;;;;;;;;;;1722177;28;20201;-71
2021/12/14 02:40:57;;;;;;;0.00;0.00;;;;;;;;;;1719319;28;20260;-71
2021/12/14 02:41:52;;;;;;;0.00;0.00;;;;;;;;;;1721159;28;20799;-71
2021/12/14 02:42:45;;;;;;;0.00;0.00;;;;;;;;;;1725192;28;20200;-71
2021/12/14 02:43:38;;;;;;;0.00;0.00;;;;;;;;;;1722341;28;20763;-71
2021/12/14 02:44:30;;;;;;;0.00;0.00;;;;;;;;;;1725878;28;20212;-71
2021/12/14 02:45:22;;;;;;;0.00;0.00;;;;;;;;;;1720447;28;20216;-71
2021/12/14 02:46:15;;;;;;;0.00;0.00;;;;;;;;;;1725137;28;20355;-71
2021/12/14 02:47:10;;;;;;;0.00;0.00;;;;;;;;;;1721329;28;20274;-71
2021/12/14 02:48:06;;;;;;;0.00;0.00;;;;;;;;;;1725456;28;20212;-71
2021/12/14 02:48:58;;;;;;;0.00;0.00;;;;;;;;;;1723671;28;20216;-71
2021/12/14 02:49:51;;;;;;;0.00;0.00;;;;;;;;;;1724024;28;20313;-71
2021/12/14 02:50:43;;;;;;;0.00;0.00;;;;;;;;;;1724127;28;20258;-71
2021/12/14 02:51:39;;;;;;;0.00;0.00;;;;;;;;;;1723169;28;20255;-71
2021/12/14 02:52:34;;;;;;;0.00;0.00;;;;;;;;;;1725336;28;20201;-71
2021/12/14 02:53:26;;;;;;;0.00;0.00;;;;;;;;;;1722014;28;20267;-71
2021/12/14 02:54:20;;;;;;;0.00;0.00;;;;;;;;;;1726274;28;20484;-71
2021/12/14 02:55:14;;;;;;;0.00;0.00;;;;;;;;;;1723238;28;20201;-71
2021/12/14 02:56:09;;;;;;;0.00;0.00;;;;;;;;;;1721916;28;20220;-71
2021/12/14 02:57:03;;;;;;;0.00;0.00;;;;;;;;;;1722592;28;20264;-71
2021/12/14 02:57:57;;;;;;;0.00;0.00;;;;;;;;;;1724785;28;20524;-71
2021/12/14 02:58:50;;;;;;;0.00;0.00;;;;;;;;;;1723868;28;20690;-71
2021/12/14 02:59:43;;;;;;;0.10;0.10;;;;;;;;;;1724437;28;20200;-71
2021/12/14 03:00:37;;;;;;;0.00;0.00;;;;;;;;;;1718499;28;20208;-71
2021/12/14 03:01:29;;;;;;;0.00;0.00;;;;;;;;;;1720393;28;20211;-71
2021/12/14 03:02:23;;;;;;;0.00;0.00;;;;;;;;;;1724842;28;20300;-71
2021/12/14 03:03:15;;;;;;;0.00;0.00;;;;;;;;;;1724007;28;20201;-71
2021/12/14 03:04:08;;;;;;;0.00;0.00;;;;;;;;;;1724832;28;20215;-71
2021/12/14 03:05:04;;;;;;;0.00;0.00;;;;;;;;;;1721721;28;20250;-71
2021/12/14 03:05:59;;;;;;;0.00;0.00;;;;;;;;;;1719134;28;20233;-71
2021/12/14 03:06:53;;;;;;;0.00;0.00;;;;;;;;;;1720803;28;20500;-71
2021/12/14 03:07:48;;;;;;;0.00;0.00;;;;;;;;;;1726354;28;20204;-71
2021/12/14 03:08:46;;;;;;;0.00;0.00;;;;;;;;;;1722154;28;20543;-71
2021/12/14 03:09:51;;;;;;;0.00;0.00;;;;;;;;;;1724144;28;20243;-71
2021/12/14 03:10:54;;;;;;;0.00;0.00;;;;;;;;;;1718977;28;20240;-71
2021/12/14 03:11:46;;;;;;;0.00;0.00;;;;;;;;;;1719506;28;20205;-71
2021/12/14 03:12:39;;;;;;;0.00;0.00;;;;;;;;;;1723946;28;20204;-71
2021/12/14 03:13:34;;;;;;;0.00;0.00;;;;;;;;;;1720587;28;20204;-71
2021/12/14 03:14:26;;;;;;;0.00;0.00;;;;;;;;;;1725270;28;20520;-70
2021/12/14 03:15:21;;;;;;;0.00;0.00;;;;;;;;;;1721698;28;20215;-70
2021/12/14 03:16:16;;;;;;;0.00;0.00;;;;;;;;;;1718384;28;20237;-71
2021/12/14 03:17:08;;;;;;;0.00;0.00;;;;;;;;;;1721662;28;20208;-70
2021/12/14 03:18:01;;;;;;;0.00;0.00;;;;;;;;;;1724142;28;20561;-70
2021/12/14 03:18:54;;;;;;;0.00;0.00;;;;;;;;;;1724106;28;20215;-70
2021/12/14 03:19:52;;;;;;;0.00;0.00;;;;;;;;;;1719434;28;20201;-71
2021/12/14 03:20:45;;;;;;;0.00;0.00;;;;;;;;;;1724090;28;20688;-70
2021/12/14 03:21:45;;;;;;;0.00;0.00;;;;;;;;;;1721660;28;20201;-70
2021/12/14 03:22:41;;;;;;;0.00;0.00;;;;;;;;;;1724298;28;20208;-70
2021/12/14 03:23:34;;;;;;;0.00;0.00;;;;;;;;;;1720620;28;20205;-70
2021/12/14 03:24:26;;;;;;;0.00;0.00;;;;;;;;;;1725430;28;20264;-70
2021/12/14 03:25:20;;;;;;;0.00;0.00;;;;;;;;;;1720765;28;20602;-70
2021/12/14 03:26:13;;;;;;;0.00;0.00;;;;;;;;;;1718036;28;20251;-70
2021/12/14 03:27:05;;;;;;;0.00;0.00;;;;;;;;;;1720007;28;20626;-70
2021/12/14 03:27:58;;;;;;;0.00;0.00;;;;;;;;;;1719267;28;20208;-70
2021/12/14 03:28:50;;;;;;;0.00;0.00;;;;;;;;;;1725460;28;20204;-70
2021/12/14 03:29:43;;;;;;;0.00;0.00;;;;;;;;;;1723687;28;20290;-70
2021/12/14 03:30:35;;;;;;;0.00;0.00;;;;;;;;;;1718282;28;20651;-70
2021/12/14 03:31:29;;;;;;;0.00;0.00;;;;;;;;;;1718768;28;20482;-70
2021/12/14 03:32:20;;;;;;;0.00;0.00;;;;;;;;;;1723270;28;20590;-70
2021/12/14 03:33:17;;;;;;;0.00;0.00;;;;;;;;;;1721736;28;20215;-69
2021/12/14 03:34:11;;;;;;;0.00;0.00;;;;;;;;;;1725738;28;20338;-70
2021/12/14 03:35:03;;;;;;;0.00;0.00;;;;;;;;;;1720906;28;20210;-71
2021/12/14 03:35:57;;;;;;;0.00;0.00;;;;;;;;;;1718406;28;20237;-70
2021/12/14 03:36:51;;;;;;;0.00;0.00;;;;;;;;;;1718756;28;20513;-70
2021/12/14 03:37:44;;;;;;;0.00;0.00;;;;;;;;;;1725542;28;20208;-70
2021/12/14 03:38:38;;;;;;;0.00;0.00;;;;;;;;;;1720017;28;20209;-70
2021/12/14 03:39:31;;;;;;;0.00;0.00;;;;;;;;;;1725177;28;20223;-70
2021/12/14 03:40:23;;;;;;;0.03;0.03;;;;;;;;;;1722060;28;20263;-70
2021/12/14 03:41:16;;;;;;;0.00;0.00;;;;;;;;;;1719072;28;20390;-70
2021/12/14 03:42:10;;;;;;;0.00;0.00;;;;;;;;;;1721203;28;20235;-70
2021/12/14 03:43:01;;;;;;;0.00;0.00;;;;;;;;;;1724869;28;20342;-70
2021/12/14 03:43:57;;;;;;;0.00;0.00;;;;;;;;;;1718248;28;20205;-70
2021/12/14 03:44:51;;;;;;;0.00;0.00;;;;;;;;;;1718317;28;20213;-70
2021/12/14 03:45:43;;;;;;;0.00;0.00;;;;;;;;;;1724176;28;20417;-70
2021/12/14 03:46:36;;;;;;;0.00;0.00;;;;;;;;;;1721608;28;20231;-70
2021/12/14 03:47:29;;;;;;;0.00;0.00;;;;;;;;;;1724090;28;20589;-70
2021/12/14 03:48:21;;;;;;;0.00;0.00;;;;;;;;;;1720476;28;20219;-71
2021/12/14 03:49:14;;;;;;;0.00;0.00;;;;;;;;;;1725196;28;20315;-70
2021/12/14 03:50:09;;;;;;;0.00;0.00;;;;;;;;;;1720189;28;20356;-70
2021/12/14 03:51:01;;;;;;;0.00;0.00;;;;;;;;;;1717550;28;20267;-71
2021/12/14 03:51:53;;;;;;;0.00;0.00;;;;;;;;;;1722725;28;20212;-71
2021/12/14 03:52:47;;;;;;;0.00;0.00;;;;;;;;;;1725476;28;20211;-71
2021/12/14 03:53:38;;;;;;;0.00;0.00;;;;;;;;;;1721874;28;20208;-70
2021/12/14 03:54:31;;;;;;;0.00;0.00;;;;;;;;;;1724973;28;20266;-70
2021/12/14 03:55:24;;;;;;;0.00;0.00;;;;;;;;;;1720843;28;20262;-70
2021/12/14 03:56:16;;;;;;;0.00;0.00;;;;;;;;;;1721646;28;20216;-71
2021/12/14 03:57:08;;;;;;;0.00;0.00;;;;;;;;;;1723737;28;20207;-70
2021/12/14 03:58:00;;;;;;;0.00;0.00;;;;;;;;;;1725082;28;20640;-70
2021/12/14 03:58:52;;;;;;;0.00;0.00;;;;;;;;;;1724903;28;20216;-70
2021/12/14 03:59:45;;;;;;;0.00;0.00;;;;;;;;;;1724712;28;20196;-70
2021/12/14 04:00:41;;;;;;;0.00;0.00;;;;;;;;;;1717592;28;20266;-70
2021/12/14 04:01:36;;;;;;;0.00;0.00;;;;;;;;;;1718741;28;20606;-70
2021/12/14 04:02:27;;;;;;;0.00;0.00;;;;;;;;;;1718597;28;20213;-70
2021/12/14 04:03:21;;;;;;;0.00;0.00;;;;;;;;;;1718438;28;21625;-70
2021/12/14 04:04:16;;;;;;;0.00;0.00;;;;;;;;;;1724984;28;20622;-70
2021/12/14 04:05:12;;;;;;;0.00;0.00;;;;;;;;;;1720107;28;20212;-70
2021/12/14 04:06:04;;;;;;;0.00;0.00;;;;;;;;;;1717653;28;20322;-70
2021/12/14 04:06:57;;;;;;;0.00;0.00;;;;;;;;;;1718702;28;20592;-70
2021/12/14 04:07:50;;;;;;;0.00;0.00;;;;;;;;;;1725298;28;20690;-70
2021/12/14 04:08:43;;;;;;;0.00;0.00;;;;;;;;;;1720351;28;20595;-71
2021/12/14 04:09:35;;;;;;;0.00;0.00;;;;;;;;;;1723563;28;20262;-71
2021/12/14 04:10:29;;;;;;;0.08;0.00;;;;;;;;;;1724423;28;20211;-71
2021/12/14 04:11:21;;;;;;;0.00;0.00;;;;;;;;;;1724749;28;20678;-71
2021/12/14 04:12:16;;;;;;;0.00;0.00;;;;;;;;;;1724216;28;20612;-71
2021/12/14 04:13:08;;;;;;;0.00;0.00;;;;;;;;;;1723436;28;20670;-71
2021/12/14 04:14:00;;;;;;;0.00;0.00;;;;;;;;;;1725146;28;20322;-71
2021/12/14 04:14:53;;;;;;;0.00;0.00;;;;;;;;;;1723310;28;20208;-71
2021/12/14 04:15:46;;;;;;;0.00;0.00;;;;;;;;;;1717887;28;20224;-71
2021/12/14 04:16:40;;;;;;;0.00;0.00;;;;;;;;;;1718071;28;20216;-71
2021/12/14 04:17:32;;;;;;;0.00;0.00;;;;;;;;;;1723705;28;20200;-71
2021/12/14 04:18:25;;;;;;;0.00;0.00;;;;;;;;;;1720250;28;20642;-71
2021/12/14 04:19:21;;;;;;;0.00;0.00;;;;;;;;;;1721157;28;20211;-71
2021/12/14 04:20:13;;;;;;;0.00;0.00;;;;;;;;;;1718981;28;20201;-71
2021/12/14 04:21:06;;;;;;;0.00;0.00;;;;;;;;;;1717123;28;20766;-71
2021/12/14 04:21:59;;;;;;;0.00;0.00;;;;;;;;;;1719845;28;20673;-71
2021/12/14 04:22:53;;;;;;;0.00;0.00;;;;;;;;;;1724468;28;20215;-71
2021/12/14 04:23:46;;;;;;;0.00;0.00;;;;;;;;;;1723849;28;20216;-71
2021/12/14 04:24:39;;;;;;;0.00;0.00;;;;;;;;;;1738290;22;20237;-71
2021/12/14 04:25:33;;;;;;;0.00;0.00;;;;;;;;;;1704774;28;20220;-71
2021/12/14 04:26:26;;;;;;;0.00;0.00;;;;;;;;;;1705273;28;20237;-71
2021/12/14 04:27:19;;;;;;;0.00;0.00;;;;;;;;;;1710029;28;20213;-71
2021/12/14 04:28:12;;;;;;;0.00;0.00;;;;;;;;;;1709820;28;20248;-71
2021/12/14 04:29:04;;;;;;;0.00;0.00;;;;;;;;;;1709451;28;20217;-71
2021/12/14 04:29:58;;;;;;;0.00;0.00;;;;;;;;;;1708224;28;20280;-71
2021/12/14 04:30:50;;;;;;;0.00;0.00;;;;;;;;;;1705301;28;20245;-71
2021/12/14 04:31:44;;;;;;;0.00;0.00;;;;;;;;;;1708758;28;20576;-71
2021/12/14 04:32:35;;;;;;;0.00;0.00;;;;;;;;;;1708302;28;20213;-71
2021/12/14 04:33:30;;;;;;;0.00;0.00;;;;;;;;;;1706438;28;20633;-71
2021/12/14 04:34:21;;;;;;;0.00;0.00;;;;;;;;;;1707020;28;20214;-71
2021/12/14 04:35:14;;;;;;;0.00;0.00;;;;;;;;;;1707228;28;20264;-71
2021/12/14 04:36:08;;;;;;;0.00;0.00;;;;;;;;;;1704436;28;20234;-71
2021/12/14 04:37:01;;;;;;;0.00;0.00;;;;;;;;;;1709700;28;20244;-71
2021/12/14 04:37:58;;;;;;;0.00;0.00;;;;;;;;;;1711826;28;20663;-71
2021/12/14 04:38:54;;;;;;;0.00;0.00;;;;;;;;;;1709552;28;20688;-71
2021/12/14 04:39:51;;;;;;;0.00;0.00;;;;;;;;;;1710437;28;20221;-71
2021/12/14 04:52:30;;;;;;;0.00;0.00;;;;;;;;;;1710859;28;20220;-71
2021/12/14 04:53:37;;;;;;;0.00;0.00;;;;;;;;;;1710145;28;20205;-71
2021/12/14 04:54:30;;;;;;;0.00;0.00;;;;;;;;;;1705494;28;20294;-71
2021/12/14 04:55:21;;;;;;;0.00;0.00;;;;;;;;;;1710999;28;20591;-71
2021/12/14 04:56:15;;;;;;;0.00;0.00;;;;;;;;;;1710477;28;20221;-71
2021/12/14 04:57:15;;;;;;;0.00;0.00;;;;;;;;;;1709244;28;20607;-71
2021/12/14 04:58:08;;;;;;;0.00;0.00;;;;;;;;;;1711745;28;20227;-72
2021/12/14 04:59:00;;;;;;;0.00;0.00;;;;;;;;;;1712072;28;20361;-72
2021/12/14 04:59:53;;;;;;;0.00;0.00;;;;;;;;;;1711324;28;20215;-72
2021/12/14 05:00:46;;;;;;;0.00;0.00;;;;;;;;;;1712823;28;20690;-73
2021/12/14 05:01:41;;;;;;;0.00;0.00;;;;;;;;;;1711472;28;20216;-73
2021/12/14 05:02:33;;;;;;;0.00;0.00;;;;;;;;;;1706410;28;20199;-73
2021/12/14 05:03:28;;;;;;;0.00;0.00;;;;;;;;;;1708284;28;20206;-73
2021/12/14 05:04:21;;;;;;;0.00;0.00;;;;;;;;;;1706466;29;20499;-73
2021/12/14 05:05:17;;;;;;;0.00;0.00;;;;;;;;;;1709917;28;20217;-73
2021/12/14 05:06:14;;;;;;;0.00;0.00;;;;;;;;;;1706219;28;20234;-73
2021/12/14 05:07:32;;;;;;;0.00;0.00;;;;;;;;;;1710420;28;20242;-73
2021/12/14 05:09:31;;;;;;;0.00;0.00;;;;;;;;;;1707198;28;20190;-73
2021/12/14 05:10:24;;;;;;;0.00;0.00;;;;;;;;;;1708825;28;20283;-73
2021/12/14 05:11:17;;;;;;;0.00;0.00;;;;;;;;;;1707251;28;20241;-73
2021/12/14 05:12:11;;;;;;;0.00;0.00;;;;;;;;;;1710403;28;20209;-73
2021/12/14 05:13:03;;;;;;;0.00;0.00;;;;;;;;;;1712252;28;20213;-73
2021/12/14 05:13:59;;;;;;;0.00;0.00;;;;;;;;;;1711092;28;20268;-73
2021/12/14 05:14:51;;;;;;;0.00;0.00;;;;;;;;;;1711176;28;20283;-73
2021/12/14 05:15:43;;;;;;;0.00;0.00;;;;;;;;;;1706872;28;20289;-73
2021/12/14 05:16:34;;;;;;;0.00;0.00;;;;;;;;;;1708623;28;20264;-73
2021/12/14 05:17:30;;;;;;;0.00;0.00;;;;;;;;;;1712522;28;20197;-72
2021/12/14 05:18:22;;;;;;;0.00;0.00;;;;;;;;;;1711131;28;20624;-72
2021/12/14 05:19:15;;;;;;;0.00;0.00;;;;;;;;;;1712619;28;20197;-72
2021/12/14 05:20:08;;;;;;;0.00;0.00;;;;;;;;;;1712628;28;20632;-72
2021/12/14 05:21:01;;;;;;;0.00;0.00;;;;;;;;;;1705506;28;20234;-72
2021/12/14 05:21:53;;;;;;;0.03;0.03;;;;;;;;;;1710235;28;20555;-72
2021/12/14 05:22:47;;;;;;;0.00;0.00;;;;;;;;;;1713132;28;20220;-72
2021/12/14 05:23:38;;;;;;;0.00;0.00;;;;;;;;;;1709510;28;20263;-72
2021/12/14 05:24:32;;;;;;;0.00;0.00;;;;;;;;;;1712517;28;21054;-72
2021/12/14 05:25:25;;;;;;;0.00;0.00;;;;;;;;;;1707162;28;20625;-73
2021/12/14 05:26:18;;;;;;;0.00;0.00;;;;;;;;;;1707342;28;20226;-73
2021/12/14 05:27:11;;;;;;;0.00;0.00;;;;;;;;;;1708971;28;20556;-73
2021/12/14 05:28:05;;;;;;;0.00;0.00;;;;;;;;;;1711766;28;20545;-73
2021/12/14 05:28:56;;;;;;;0.00;0.00;;;;;;;;;;1710371;28;20271;-73
2021/12/14 05:29:48;;;;;;;0.00;0.00;;;;;;;;;;1711380;28;20214;-73
2021/12/14 05:30:41;;;;;;;0.00;0.00;;;;;;;;;;1705685;28;20304;-73
2021/12/14 05:31:33;;;;;;;0.00;0.00;;;;;;;;;;1708426;28;20201;-73
2021/12/14 05:32:25;;;;;;;0.00;0.00;;;;;;;;;;1710896;28;20683;-73
2021/12/14 05:33:18;;;;;;;0.00;0.00;;;;;;;;;;1708671;28;20679;-73
2021/12/14 05:34:09;;;;;;;0.00;0.00;;;;;;;;;;1711623;28;20486;-73
2021/12/14 05:35:02;;;;;;;0.00;0.00;;;;;;;;;;1710968;28;20268;-73
2021/12/14 05:35:54;;;;;;;0.00;0.00;;;;;;;;;;1712479;28;20284;-73
2021/12/14 05:36:47;;;;;;;0.00;0.00;;;;;;;;;;1710513;28;20225;-73
2021/12/14 05:37:45;;;;;;;0.00;0.00;;;;;;;;;;1710216;28;20202;-73
2021/12/14 05:38:46;;;;;;;0.00;0.00;;;;;;;;;;1710663;28;20683;-73
2021/12/14 05:39:51;;;;;;;0.00;0.00;;;;;;;;;;1707283;28;20206;-73
2021/12/14 05:40:57;;;;;;;0.00;0.00;;;;;;;;;;1709703;28;20241;-73